Time;durP1;ratioP1;P1;durP2;ratioP2;P2;SDS_P1;SDS_P2;PMS_P1;PMS_P2;Temp;Humidity;BMP_temperature;BMP_pressure;BME280_temperature;BME280_humidity;BME280_pressure;Samples;Min_cycle;Max_cycle;Signal;HPM_P1;HPM_P2
2023/01/22 00:01:12;;;;;;;22.48;11.85;;;;;;;0.79;48.76;102721.81;5047098;28;20517;-66
2023/01/22 00:03:40;;;;;;;18.13;10.70;;;;;;;0.78;48.81;102704.75;5043283;28;20120;-68
2023/01/22 00:06:10;;;;;;;19.65;10.85;;;;;;;0.79;48.63;102708.34;5046202;28;20082;-67
2023/01/22 00:08:39;;;;;;;18.10;10.57;;;;;;;0.77;48.83;102708.34;5044598;28;20044;-67
2023/01/22 00:11:07;;;;;;;18.55;10.20;;;;;;;0.77;48.82;102713.75;5035426;28;20037;-67
2023/01/22 00:13:35;;;;;;;18.75;10.68;;;;;;;0.78;48.77;102706.56;5047137;28;20080;-67
2023/01/22 00:16:03;;;;;;;21.73;11.93;;;;;;;0.76;49.18;102703.03;5036072;28;20515;-66
2023/01/22 00:18:31;;;;;;;18.45;10.93;;;;;;;0.77;48.67;102704.75;5049032;28;20046;-67
2023/01/22 00:20:59;;;;;;;19.10;11.18;;;;;;;0.78;48.80;102695.78;5035650;28;20053;-67
2023/01/22 00:23:26;;;;;;;21.63;11.20;;;;;;;0.77;48.58;102694.88;5043254;28;20052;-67
2023/01/22 00:26:02;;;;;;;20.58;10.25;;;;;;;0.80;49.01;102692.13;5037407;28;20077;-67
2023/01/22 00:28:30;;;;;;;17.60;9.93;;;;;;;0.77;48.85;102692.19;5040961;28;20170;-67
2023/01/22 00:30:58;;;;;;;19.02;10.85;;;;;;;0.79;48.66;102689.47;5047476;28;20041;-67
2023/01/22 00:33:26;;;;;;;18.50;10.10;;;;;;;0.80;48.71;102689.44;5047405;28;20041;-66
2023/01/22 00:35:55;;;;;;;20.77;11.15;;;;;;;0.81;48.94;102679.56;5046192;28;20514;-67
2023/01/22 00:38:23;;;;;;;17.98;9.90;;;;;;;0.82;48.85;102675.94;5030410;28;20053;-68
2023/01/22 00:40:51;;;;;;;18.20;10.80;;;;;;;0.83;49.00;102665.16;5032579;28;20048;-67
2023/01/22 00:43:20;;;;;;;19.73;11.23;;;;;;;0.85;49.05;102662.44;5046392;28;20091;-67
2023/01/22 00:45:48;;;;;;;18.83;10.18;;;;;;;0.85;48.92;102663.28;5038983;28;20068;-67
2023/01/22 00:48:16;;;;;;;21.52;11.52;;;;;;;0.86;49.01;102666.88;5038767;28;20877;-66
2023/01/22 00:50:44;;;;;;;19.08;10.32;;;;;;;0.87;48.92;102661.47;5030058;28;20045;-66
2023/01/22 00:53:11;;;;;;;21.92;11.88;;;;;;;0.88;48.74;102668.66;5038435;28;20041;-68
2023/01/22 00:55:39;;;;;;;19.00;11.43;;;;;;;0.89;48.87;102661.47;5036700;28;20052;-67
2023/01/22 00:58:07;;;;;;;19.88;10.65;;;;;;;0.88;48.91;102663.28;5042249;28;20107;-66
2023/01/22 01:00:36;;;;;;;17.25;10.15;;;;;;;0.91;49.02;102652.44;5042404;28;20524;-67
2023/01/22 01:05:50;;;;;;;18.50;10.05;;;;;;;0.91;49.05;102654.25;5044574;28;20063;-67
2023/01/22 01:08:17;;;;;;;21.10;11.70;;;;;;;0.89;49.02;102659.66;5046107;28;20049;-67
2023/01/22 01:10:45;;;;;;;19.95;10.55;;;;;;;0.91;48.96;102665.94;5046801;28;20040;-67
2023/01/22 01:13:13;;;;;;;20.60;10.68;;;;;;;0.91;49.00;102652.44;5039008;28;20052;-67
2023/01/22 01:15:43;;;;;;;20.08;10.48;;;;;;;0.94;49.09;102649.66;5040855;28;20402;-67
2023/01/22 01:18:13;;;;;;;20.30;11.13;;;;;;;0.93;49.14;102660.50;5043684;28;20045;-67
2023/01/22 01:20:41;;;;;;;18.52;10.52;;;;;;;0.93;48.91;102655.97;5036125;28;20049;-68
2023/01/22 01:23:08;;;;;;;18.30;10.77;;;;;;;0.94;49.18;102652.38;5043393;28;20048;-66
2023/01/22 01:25:40;;;;;;;20.85;11.35;;;;;;;0.96;49.09;102655.03;5042585;28;20056;-67
2023/01/22 01:28:08;;;;;;;19.15;10.68;;;;;;;0.95;49.04;102659.53;5039214;28;20037;-66
2023/01/22 01:30:36;;;;;;;20.38;11.43;;;;;;;0.96;48.90;102658.63;5044141;28;20506;-67
2023/01/22 01:33:05;;;;;;;20.77;11.35;;;;;;;0.97;48.99;102648.72;5043738;28;20041;-67
2023/01/22 01:35:33;;;;;;;20.40;11.48;;;;;;;0.97;49.05;102655.03;5041143;28;20044;-67
2023/01/22 01:38:00;;;;;;;19.60;11.05;;;;;;;0.98;49.22;102655.91;5039328;28;20123;-67
2023/01/22 01:40:28;;;;;;;18.95;10.85;;;;;;;0.99;49.22;102658.59;5044062;28;20048;-66
2023/01/22 01:42:56;;;;;;;19.92;10.88;;;;;;;0.99;49.06;102653.19;5043589;28;20065;-67
2023/01/22 01:45:30;;;;;;;16.95;10.18;;;;;;;1.01;49.20;102656.72;5044997;28;20060;-66
2023/01/22 01:48:07;;;;;;;18.50;11.23;;;;;;;1.02;49.33;102647.72;5042780;28;20618;-67
2023/01/22 01:50:39;;;;;;;19.10;10.55;;;;;;;1.01;49.08;102642.38;5037879;28;20037;-67
2023/01/22 01:53:08;;;;;;;17.20;10.57;;;;;;;1.01;48.99;102637.84;5037850;28;20037;-67
2023/01/22 01:55:39;;;;;;;18.33;10.82;;;;;;;1.03;49.17;102637.81;5040282;28;20036;-67
2023/01/22 01:58:13;;;;;;;17.80;10.48;;;;;;;1.02;48.99;102626.16;5036247;28;20081;-68
2023/01/22 02:00:44;;;;;;;18.73;10.25;;;;;;;1.02;49.00;102626.16;5040453;28;20037;-67
2023/01/22 02:03:13;;;;;;;20.08;11.02;;;;;;;1.03;49.07;102633.31;5034677;28;20053;-67
2023/01/22 02:05:41;;;;;;;17.80;10.40;;;;;;;1.02;49.03;102626.16;5037532;28;20041;-67
2023/01/22 02:08:09;;;;;;;18.35;11.18;;;;;;;1.03;49.00;102630.63;5034699;28;20048;-66
2023/01/22 02:10:38;;;;;;;19.15;10.45;;;;;;;1.02;49.12;102634.25;5040809;28;20115;-67
2023/01/22 02:13:09;;;;;;;17.88;10.30;;;;;;;1.04;49.06;102636.91;5038518;28;20085;-66
2023/01/22 02:15:39;;;;;;;20.05;11.07;;;;;;;1.03;49.09;102643.22;5041265;28;20466;-68
2023/01/22 02:18:06;;;;;;;19.67;10.80;;;;;;;1.03;49.11;102638.72;5057698;28;20502;-67
2023/01/22 02:20:37;;;;;;;19.17;10.05;;;;;;;1.05;49.29;102627.91;5035194;28;20506;-66
2023/01/22 02:23:07;;;;;;;20.63;11.40;;;;;;;1.01;48.90;102628.91;5042721;28;20080;-68
2023/01/22 02:25:35;;;;;;;19.77;11.38;;;;;;;1.03;49.09;102625.22;5043066;28;20049;-67
2023/01/22 02:28:03;;;;;;;18.98;10.82;;;;;;;1.03;49.04;102632.44;5034347;28;20580;-67
2023/01/22 02:30:31;;;;;;;18.63;10.45;;;;;;;1.04;49.27;102628.81;5041718;28;20037;-67
2023/01/22 02:32:59;;;;;;;19.48;10.95;;;;;;;1.04;49.06;102628.81;5038087;28;20041;-67
2023/01/22 02:35:27;;;;;;;17.85;10.55;;;;;;;1.04;49.03;102623.44;5032568;28;20056;-66
2023/01/22 02:37:56;;;;;;;17.20;10.30;;;;;;;1.04;49.11;102624.31;5037535;28;20042;-67
2023/01/22 02:40:24;;;;;;;21.85;11.93;;;;;;;1.03;49.13;102619.84;5037217;28;20052;-67
2023/01/22 02:42:53;;;;;;;17.83;10.32;;;;;;;1.02;49.09;102620.75;5039336;28;20041;-66
2023/01/22 02:45:21;;;;;;;17.48;10.70;;;;;;;1.02;49.04;102622.56;5038663;28;20053;-66
2023/01/22 02:47:49;;;;;;;18.70;10.40;;;;;;;1.02;49.17;102625.25;5043417;28;20275;-67
2023/01/22 02:50:18;;;;;;;18.20;10.35;;;;;;;1.01;49.04;102632.47;5055936;28;20221;-65
2023/01/22 02:52:46;;;;;;;17.52;10.30;;;;;;;1.01;49.24;102626.22;5038662;28;20043;-68
2023/01/22 02:55:15;;;;;;;17.60;10.55;;;;;;;1.01;49.21;102627.06;5035754;28;20049;-67
2023/01/22 02:57:44;;;;;;;18.30;11.02;;;;;;;1.00;48.94;102622.63;5041797;28;20038;-66
2023/01/22 03:00:14;;;;;;;20.05;11.48;;;;;;;0.99;49.13;102623.53;5041697;28;20056;-66
2023/01/22 03:02:42;;;;;;;20.58;11.63;;;;;;;0.98;49.03;102618.16;5034264;28;20045;-66
2023/01/22 03:05:10;;;;;;;19.63;10.75;;;;;;;0.97;49.01;102619.06;5056660;28;20068;-67
2023/01/22 03:07:43;;;;;;;18.20;11.05;;;;;;;0.95;49.12;102608.31;5043770;28;20044;-67
2023/01/22 03:10:14;;;;;;;18.27;10.73;;;;;;;0.95;49.23;102608.31;5031612;28;20057;-66
2023/01/22 03:21:13;;;;;;;15.73;9.82;;;;;;;0.92;49.29;102596.72;5035854;28;20041;-67
2023/01/22 03:23:42;;;;;;;16.80;9.93;;;;;;;0.92;49.27;102596.72;5033241;28;20044;-68
2023/01/22 03:26:11;;;;;;;16.58;9.93;;;;;;;0.91;49.28;102593.16;5042427;28;20521;-67
2023/01/22 03:28:41;;;;;;;17.20;10.38;;;;;;;0.92;49.50;102588.63;5039630;28;20045;-66
2023/01/22 03:31:09;;;;;;;16.73;10.20;;;;;;;0.91;49.28;102590.44;5036648;28;20547;-65
2023/01/22 03:33:37;;;;;;;19.05;10.32;;;;;;;0.92;49.40;102594.03;5027945;28;20368;-67
2023/01/22 03:36:10;;;;;;;17.05;10.23;;;;;;;0.92;49.43;102586.84;5032309;28;20048;-67
2023/01/22 03:38:41;;;;;;;16.35;10.43;;;;;;;0.92;49.27;102581.44;5032886;28;20047;-67
2023/01/22 03:41:16;;;;;;;18.42;10.63;;;;;;;0.92;49.31;102594.91;5042074;28;20072;-67
2023/01/22 03:43:47;;;;;;;16.30;10.48;;;;;;;0.92;49.38;102589.53;5036602;28;20045;-66
2023/01/22 03:46:19;;;;;;;16.63;9.68;;;;;;;0.91;49.50;102595.84;5043818;28;20107;-67
2023/01/22 03:48:52;;;;;;;16.27;9.57;;;;;;;0.91;49.41;102600.34;5036841;28;20037;-67
2023/01/22 03:51:21;;;;;;;15.23;9.32;;;;;;;0.92;49.24;102597.63;5042857;28;20068;-67
2023/01/22 03:53:49;;;;;;;17.73;10.30;;;;;;;0.92;49.41;102588.63;5034479;28;20033;-67
2023/01/22 03:56:21;;;;;;;17.10;9.95;;;;;;;0.93;49.38;102591.28;5037057;28;20525;-67
2023/01/22 03:58:51;;;;;;;15.10;9.48;;;;;;;0.92;49.65;102600.31;5047205;28;20249;-67
2023/01/22 04:01:22;;;;;;;17.55;10.63;;;;;;;0.93;49.32;102591.28;5043712;28;20345;-68
2023/01/22 04:03:51;;;;;;;15.95;9.63;;;;;;;0.93;49.39;102588.59;5045443;28;20044;-66
2023/01/22 04:06:22;;;;;;;16.17;9.57;;;;;;;0.94;49.40;102597.56;5046168;28;20493;-68
2023/01/22 04:08:53;;;;;;;16.50;9.50;;;;;;;0.95;49.46;102599.34;5043751;28;20036;-66
2023/01/22 04:11:25;;;;;;;18.48;10.07;;;;;;;0.94;49.40;102592.16;5048131;28;20510;-66
2023/01/22 04:13:55;;;;;;;16.70;10.30;;;;;;;0.94;49.23;102602.94;5037806;28;20047;-68
2023/01/22 04:16:25;;;;;;;14.43;9.20;;;;;;;0.94;49.52;102601.16;5042351;28;20632;-67
2023/01/22 04:19:13;;;;;;;16.02;9.40;;;;;;;0.93;49.48;102599.38;5045881;28;20051;-66
2023/01/22 04:22:00;;;;;;;17.08;9.75;;;;;;;0.92;49.57;102597.63;5062784;28;20308;-66
2023/01/22 04:24:28;;;;;;;14.55;9.35;;;;;;;0.93;49.41;102590.41;5063680;28;20045;-67
2023/01/22 04:26:55;;;;;;;16.38;9.43;;;;;;;0.94;49.32;102597.56;5041142;28;20041;-67
2023/01/22 04:29:25;;;;;;;14.15;8.82;;;;;;;0.95;49.56;102600.22;5064844;28;20068;-67
2023/01/22 04:31:53;;;;;;;16.27;9.23;;;;;;;0.94;49.41;102594.88;5052782;28;20044;-67
2023/01/22 04:34:35;;;;;;;14.77;9.13;;;;;;;0.93;49.19;102601.22;5046524;28;20047;-67
2023/01/22 04:37:16;;;;;;;14.85;9.02;;;;;;;0.93;49.33;102593.97;5046572;28;20045;-67
2023/01/22 04:39:44;;;;;;;14.45;9.13;;;;;;;0.93;49.23;102591.28;5032432;28;20055;-67
2023/01/22 04:42:12;;;;;;;15.20;9.15;;;;;;;0.93;49.48;102587.72;5035291;28;20360;-67
2023/01/22 04:44:41;;;;;;;14.43;8.55;;;;;;;0.94;49.55;102592.16;5035870;28;20079;-67
2023/01/22 04:47:09;;;;;;;13.48;8.27;;;;;;;0.93;49.32;102595.81;5047616;28;20135;-67
2023/01/22 04:49:39;;;;;;;14.25;8.88;;;;;;;0.92;49.50;102602.13;5045226;28;20110;-67
2023/01/22 04:52:10;;;;;;;14.07;9.07;;;;;;;0.92;49.40;102602.13;5050769;28;20041;-67
2023/01/22 04:54:38;;;;;;;14.77;9.05;;;;;;;0.91;49.39;102605.72;5044761;28;20056;-67
2023/01/22 04:57:06;;;;;;;15.68;9.15;;;;;;;0.91;49.40;102603.03;5039931;28;20059;-67
2023/01/22 04:59:34;;;;;;;14.45;8.80;;;;;;;0.90;49.65;102599.44;5060435;28;20127;-67
2023/01/22 05:02:04;;;;;;;14.68;8.57;;;;;;;0.91;49.31;102605.72;5051250;28;20047;-67
2023/01/22 05:04:33;;;;;;;11.57;8.10;;;;;;;0.90;49.30;102604.84;5046571;28;20064;-67
2023/01/22 05:07:01;;;;;;;14.80;9.25;;;;;;;0.89;49.55;102604.88;5041052;28;20405;-67
2023/01/22 05:09:30;;;;;;;14.20;8.52;;;;;;;0.88;49.54;102601.28;5047061;28;20055;-67
2023/01/22 05:12:00;;;;;;;14.02;9.25;;;;;;;0.87;49.40;102588.69;5051924;28;20052;-67
2023/01/22 05:14:33;;;;;;;13.85;8.35;;;;;;;0.86;49.29;102589.59;5047689;28;20394;-66
2023/01/22 05:17:01;;;;;;;13.32;8.27;;;;;;;0.87;49.35;102595.88;5034632;28;20391;-67
2023/01/22 05:19:31;;;;;;;15.30;8.93;;;;;;;0.87;49.44;102590.47;5061281;28;20049;-67
2023/01/22 05:21:58;;;;;;;12.25;8.18;;;;;;;0.86;49.47;102592.28;5050450;28;20453;-67
2023/01/22 05:24:26;;;;;;;15.05;8.82;;;;;;;0.85;49.34;102595.03;5050767;28;20384;-67
2023/01/22 05:26:54;;;;;;;13.50;9.00;;;;;;;0.83;49.31;102595.06;5031445;28;20088;-67
2023/01/22 05:29:29;;;;;;;13.77;8.40;;;;;;;0.82;49.56;102601.38;5050416;28;20524;-66
2023/01/22 05:32:17;;;;;;;16.73;10.00;;;;;;;0.80;49.78;102595.13;5050593;28;20075;-67
2023/01/22 05:34:53;;;;;;;13.02;8.88;;;;;;;0.80;49.57;102587.03;5037980;28;20054;-67
2023/01/22 05:37:21;;;;;;;15.68;8.90;;;;;;;0.79;49.59;102587.94;5068930;28;20255;-67
2023/01/22 05:39:50;;;;;;;13.70;8.68;;;;;;;0.80;49.76;102589.72;5046414;28;20048;-67
2023/01/22 05:42:19;;;;;;;13.73;9.10;;;;;;;0.78;49.52;102582.56;5044402;28;20441;-67
2023/01/22 05:44:49;;;;;;;13.27;8.60;;;;;;;0.78;49.52;102587.97;5046755;28;20106;-67
2023/01/22 05:47:20;;;;;;;13.65;8.55;;;;;;;0.78;49.78;102590.66;5043307;28;20135;-67
2023/01/22 05:50:11;;;;;;;13.50;8.65;;;;;;;0.78;49.78;102590.66;5067834;28;20059;-67
2023/01/22 05:52:38;;;;;;;14.15;9.18;;;;;;;0.74;49.75;102593.44;5043253;28;20052;-67
2023/01/22 05:55:08;;;;;;;14.50;9.23;;;;;;;0.76;49.56;102595.22;5046352;28;20506;-67
2023/01/22 05:57:41;;;;;;;13.48;8.63;;;;;;;0.73;49.61;102601.53;5047759;28;20041;-67
2023/01/22 06:00:11;;;;;;;14.93;9.45;;;;;;;0.72;49.71;102602.47;5042965;28;20059;-67
2023/01/22 06:02:54;;;;;;;14.55;8.88;;;;;;;0.72;49.71;102602.47;5039737;28;20071;-67
2023/01/22 06:05:24;;;;;;;15.53;9.13;;;;;;;0.68;49.82;102604.31;5054077;28;20528;-67
2023/01/22 06:08:00;;;;;;;13.88;9.30;;;;;;;0.68;49.78;102604.31;5036812;28;20336;-67
2023/01/22 06:10:35;;;;;;;12.85;8.05;;;;;;;0.68;49.68;102603.44;5046840;28;20561;-67
2023/01/22 06:13:04;;;;;;;13.82;8.60;;;;;;;0.67;49.83;102599.88;5049043;28;20071;-67
2023/01/22 06:15:32;;;;;;;14.73;8.75;;;;;;;0.67;49.87;102598.97;5043461;28;20040;-67
2023/01/22 06:18:13;;;;;;;13.80;9.15;;;;;;;0.64;50.04;102591.81;5053265;28;20135;-67
2023/01/22 06:20:42;;;;;;;14.75;9.98;;;;;;;0.66;49.84;102591.81;5049875;28;20074;-67
2023/01/22 06:23:10;;;;;;;14.18;9.93;;;;;;;0.64;49.77;102589.13;5066988;28;20049;-67
2023/01/22 06:25:38;;;;;;;15.05;9.60;;;;;;;0.65;49.78;102593.59;5057983;28;20069;-67
2023/01/22 06:28:13;;;;;;;16.83;9.95;;;;;;;0.63;50.01;102592.75;5048593;28;20135;-67
2023/01/22 06:30:42;;;;;;;15.40;9.45;;;;;;;0.63;49.82;102591.84;5046021;28;20052;-67
2023/01/22 06:33:10;;;;;;;15.73;9.68;;;;;;;0.64;49.77;102599.03;5042587;28;20044;-67
2023/01/22 06:35:38;;;;;;;13.20;8.95;;;;;;;0.63;49.82;102595.44;5055990;28;20045;-66
2023/01/22 06:38:08;;;;;;;13.63;9.07;;;;;;;0.64;49.96;102599.03;5054518;28;20059;-67
2023/01/22 06:40:36;;;;;;;13.00;8.25;;;;;;;0.62;49.91;102601.72;5036485;28;20406;-67
2023/01/22 06:43:07;;;;;;;13.45;8.85;;;;;;;0.64;49.81;102612.50;5046803;28;20045;-68
2023/01/22 06:45:38;;;;;;;12.48;8.48;;;;;;;0.63;50.11;102603.50;5022331;28;20418;-67
2023/01/22 06:48:08;;;;;;;14.68;8.65;;;;;;;0.62;50.14;102604.44;5022865;28;20060;-67
2023/01/22 06:50:36;;;;;;;13.32;8.73;;;;;;;0.65;50.07;102608.88;5044918;28;20040;-67
2023/01/22 06:53:04;;;;;;;14.60;8.63;;;;;;;0.65;49.93;102603.50;5046805;28;20049;-67
2023/01/22 06:55:33;;;;;;;13.85;8.05;;;;;;;0.67;50.01;102615.13;5056156;28;20051;-67
2023/01/22 06:58:02;;;;;;;14.38;8.23;;;;;;;0.66;50.01;102602.59;5035250;28;20510;-67
2023/01/22 07:00:30;;;;;;;13.32;8.90;;;;;;;0.67;50.09;102607.06;5037232;28;20046;-67
2023/01/22 07:02:57;;;;;;;14.25;8.63;;;;;;;0.68;49.97;102614.22;5034904;28;20037;-67
2023/01/22 07:05:26;;;;;;;13.77;8.43;;;;;;;0.69;49.90;102610.59;5044097;28;20131;-67
2023/01/22 07:07:54;;;;;;;13.77;8.95;;;;;;;0.70;49.93;102606.97;5050982;28;20110;-67
2023/01/22 07:10:22;;;;;;;13.02;8.25;;;;;;;0.69;49.99;102608.78;5050879;28;20963;-67
2023/01/22 07:12:54;;;;;;;11.75;7.93;;;;;;;0.69;50.30;102614.16;5033628;28;20052;-67
2023/01/22 07:15:22;;;;;;;13.43;9.00;;;;;;;0.67;49.93;102609.75;5048055;28;20053;-67
2023/01/22 07:17:51;;;;;;;13.13;8.63;;;;;;;0.68;49.89;102620.47;5051654;28;20044;-67
2023/01/22 07:20:19;;;;;;;12.50;8.80;;;;;;;0.69;49.93;102624.06;5054007;28;20128;-67
2023/01/22 07:22:47;;;;;;;13.52;8.75;;;;;;;0.68;50.12;102622.31;5042352;28;20395;-68
2023/01/22 07:25:15;;;;;;;11.98;8.10;;;;;;;0.68;50.02;102633.94;5037657;28;20044;-67
2023/01/22 07:27:43;;;;;;;12.48;9.43;;;;;;;0.66;50.11;102627.72;5061233;28;20041;-67
2023/01/22 07:30:13;;;;;;;12.98;8.38;;;;;;;0.68;50.12;102628.56;5033438;28;20531;-68
2023/01/22 07:32:41;;;;;;;13.65;8.70;;;;;;;0.66;50.09;102641.19;5034029;28;20076;-67
2023/01/22 07:35:09;;;;;;;13.07;8.40;;;;;;;0.66;49.94;102633.13;5046676;28;20053;-67
2023/01/22 07:37:37;;;;;;;12.90;7.93;;;;;;;0.66;50.03;102646.59;5031962;28;20046;-67
2023/01/22 07:40:06;;;;;;;10.93;7.35;;;;;;;0.68;50.17;102646.56;5037747;28;20048;-67
2023/01/22 07:42:34;;;;;;;12.45;7.65;;;;;;;0.68;50.14;102657.34;5043109;28;20056;-67
2023/01/22 07:45:06;;;;;;;11.63;7.60;;;;;;;0.69;50.14;102653.69;5032722;28;20395;-67
2023/01/22 07:47:35;;;;;;;10.93;8.00;;;;;;;0.70;50.11;102660.88;5042151;28;20143;-67
2023/01/22 07:50:04;;;;;;;11.13;7.60;;;;;;;0.70;50.04;102658.19;5045591;28;20053;-67
2023/01/22 07:52:31;;;;;;;11.18;7.72;;;;;;;0.69;49.99;102653.69;5043801;28;20045;-67
2023/01/22 07:54:59;;;;;;;11.35;7.57;;;;;;;0.70;50.20;102652.78;5048728;28;20047;-67
2023/01/22 07:57:27;;;;;;;12.13;7.85;;;;;;;0.68;49.99;102655.50;5046255;28;20049;-67
2023/01/22 07:59:55;;;;;;;12.48;8.25;;;;;;;0.69;50.24;102661.78;5045067;28;20071;-67
2023/01/22 08:02:23;;;;;;;11.15;7.82;;;;;;;0.70;50.24;102667.16;5042625;28;20053;-67
2023/01/22 08:04:52;;;;;;;11.82;8.05;;;;;;;0.71;50.20;102663.53;5049517;28;20130;-67
2023/01/22 08:07:21;;;;;;;11.65;7.53;;;;;;;0.71;49.98;102673.44;5051221;28;20052;-67
2023/01/22 08:09:49;;;;;;;10.68;7.28;;;;;;;0.72;50.23;102668.03;5032628;28;20051;-67
2023/01/22 08:12:17;;;;;;;11.40;7.82;;;;;;;0.74;50.18;102670.69;5042138;28;20049;-67
2023/01/22 08:14:45;;;;;;;10.85;7.38;;;;;;;0.75;50.10;102675.19;5042765;28;20124;-67
2023/01/22 08:17:13;;;;;;;11.50;7.78;;;;;;;0.76;50.00;102673.38;5030140;28;20050;-68
2023/01/22 08:19:41;;;;;;;11.93;7.78;;;;;;;0.75;50.12;102675.19;5030485;28;20045;-68
2023/01/22 08:22:10;;;;;;;11.30;7.43;;;;;;;0.77;50.23;102678.72;5042453;28;20049;-67
2023/01/22 08:24:38;;;;;;;11.45;7.50;;;;;;;0.76;50.08;102671.56;5044042;28;20048;-67
2023/01/22 08:27:06;;;;;;;10.68;7.28;;;;;;;0.77;50.13;102675.13;5046782;28;20040;-67
2023/01/22 08:29:34;;;;;;;11.63;7.35;;;;;;;0.78;50.10;102671.50;5035939;28;20051;-67
2023/01/22 08:32:02;;;;;;;9.73;6.93;;;;;;;0.78;50.25;102669.72;5049008;28;20139;-65
2023/01/22 08:34:30;;;;;;;10.95;7.30;;;;;;;0.79;50.30;102674.19;5038795;28;20045;-67
2023/01/22 08:36:58;;;;;;;10.82;7.65;;;;;;;0.80;50.35;102681.34;5042458;28;20037;-67
2023/01/22 08:39:27;;;;;;;11.07;7.07;;;;;;;0.83;50.33;102692.09;5039901;28;20080;-67
2023/01/22 08:41:56;;;;;;;12.52;8.00;;;;;;;0.82;50.23;102684.03;5046297;28;20052;-67
2023/01/22 08:44:24;;;;;;;11.95;7.53;;;;;;;0.83;50.20;102685.81;5042557;28;20409;-67
2023/01/22 08:46:52;;;;;;;11.15;7.38;;;;;;;0.82;50.24;102682.22;5044252;28;20047;-67
2023/01/22 08:49:21;;;;;;;11.85;7.32;;;;;;;0.84;50.18;102690.28;5045830;28;20041;-67
2023/01/22 08:51:49;;;;;;;12.45;7.65;;;;;;;0.84;50.21;102682.22;5029406;28;20045;-67
2023/01/22 08:54:17;;;;;;;12.07;7.97;;;;;;;0.85;50.31;102678.59;5041015;28;20083;-67
2023/01/22 08:56:46;;;;;;;11.45;7.45;;;;;;;0.86;50.31;102677.66;5046937;28;20083;-67
2023/01/22 08:59:15;;;;;;;10.02;6.97;;;;;;;0.86;50.27;102683.03;5045020;28;20765;-67
2023/01/22 09:01:43;;;;;;;11.07;7.20;;;;;;;0.86;50.23;102683.03;5036724;28;20033;-68
2023/01/22 09:04:11;;;;;;;11.68;7.93;;;;;;;0.88;50.30;102692.94;5034390;28;20056;-68
2023/01/22 09:06:40;;;;;;;11.60;7.68;;;;;;;0.89;50.39;102683.94;5037587;28;20091;-67
2023/01/22 09:09:08;;;;;;;12.82;8.30;;;;;;;0.89;50.47;102685.72;5043420;28;20434;-67
2023/01/22 09:11:35;;;;;;;11.93;8.50;;;;;;;0.91;50.43;102684.78;5045805;28;20045;-71
2023/01/22 09:14:07;;;;;;;11.60;7.75;;;;;;;0.93;50.44;102680.25;5039294;28;20049;-69
2023/01/22 09:16:35;;;;;;;11.52;7.60;;;;;;;0.94;50.66;102679.31;5043599;28;20068;-68
2023/01/22 09:19:04;;;;;;;12.30;7.82;;;;;;;0.95;50.57;102677.53;5042953;28;20172;-68
2023/01/22 09:21:32;;;;;;;11.63;7.50;;;;;;;0.96;50.48;102680.19;5048553;28;20072;-69
2023/01/22 09:24:00;;;;;;;10.90;7.72;;;;;;;0.98;50.45;102681.06;5039985;28;20051;-68
2023/01/22 09:26:31;;;;;;;10.63;7.13;;;;;;;0.99;50.44;102680.16;5049215;28;20072;-69
2023/01/22 09:28:59;;;;;;;12.60;8.18;;;;;;;1.00;50.40;102676.53;5043213;28;20045;-70
2023/01/22 09:31:28;;;;;;;13.07;7.82;;;;;;;1.03;50.29;102680.97;5037975;28;20045;-69
2023/01/22 09:33:56;;;;;;;11.70;8.20;;;;;;;1.01;50.50;102680.13;5040717;28;20079;-69
2023/01/22 09:36:24;;;;;;;12.63;8.35;;;;;;;1.04;50.40;102686.34;5044905;28;20041;-69
2023/01/22 09:38:52;;;;;;;12.45;7.82;;;;;;;1.05;50.59;102690.81;5037801;28;20053;-69
2023/01/22 09:41:24;;;;;;;11.38;7.05;;;;;;;1.08;50.61;102692.56;5033488;28;20048;-69
2023/01/22 09:43:56;;;;;;;13.00;8.35;;;;;;;1.07;50.58;102696.19;5034673;28;20423;-69
2023/01/22 09:46:30;;;;;;;11.97;7.43;;;;;;;1.08;50.52;102698.84;5036894;28;20458;-70
2023/01/22 09:49:08;;;;;;;10.85;7.38;;;;;;;1.11;50.67;102701.47;5031408;28;20284;-69
2023/01/22 09:51:36;;;;;;;12.65;8.10;;;;;;;1.10;50.34;102705.09;5041223;28;20045;-69
2023/01/22 09:54:06;;;;;;;11.65;8.55;;;;;;;1.11;50.38;102701.47;5044071;28;20602;-69
2023/01/22 09:56:38;;;;;;;13.23;8.38;;;;;;;1.14;50.71;102705.03;5034731;28;20068;-69
2023/01/22 09:59:07;;;;;;;11.60;7.95;;;;;;;1.11;50.51;102705.97;5046257;28;20446;-69
2023/01/22 10:01:37;;;;;;;11.70;7.63;;;;;;;1.14;50.54;102697.84;5046773;28;20561;-68
2023/01/22 10:04:14;;;;;;;10.55;6.93;;;;;;;1.15;50.46;102694.22;5048885;28;20506;-68
2023/01/22 10:06:44;;;;;;;13.50;8.05;;;;;;;1.15;50.71;102699.63;5045500;28;20136;-71
2023/01/22 10:09:14;;;;;;;12.50;7.65;;;;;;;1.17;50.50;102699.59;5033943;28;20076;-69
2023/01/22 10:11:49;;;;;;;12.00;8.10;;;;;;;1.20;51.09;102699.50;5048506;28;20398;-67
2023/01/22 10:14:20;;;;;;;12.65;8.30;;;;;;;1.20;50.56;102694.13;5044785;28;20084;-68
2023/01/22 10:16:49;;;;;;;12.82;7.68;;;;;;;1.21;50.53;102693.22;5048515;28;20103;-68
2023/01/22 10:19:22;;;;;;;11.18;7.43;;;;;;;1.23;50.76;102691.38;5046455;28;20057;-69
2023/01/22 10:21:55;;;;;;;13.35;7.88;;;;;;;1.23;50.74;102691.38;5026156;28;20065;-69
2023/01/22 10:24:23;;;;;;;11.77;7.30;;;;;;;1.25;50.63;102692.25;5028596;28;20076;-69
2023/01/22 10:26:54;;;;;;;10.93;7.72;;;;;;;1.27;50.59;102702.06;5032385;28;20099;-69
2023/01/22 10:29:25;;;;;;;12.02;7.68;;;;;;;1.28;50.64;102693.06;5037926;28;20055;-69
2023/01/22 10:31:56;;;;;;;11.60;7.70;;;;;;;1.30;50.71;102698.44;5035324;28;20049;-69
2023/01/22 10:34:30;;;;;;;11.95;8.18;;;;;;;1.31;50.64;102694.81;5036832;28;20572;-70
2023/01/22 10:37:01;;;;;;;12.32;7.68;;;;;;;1.31;50.58;102698.41;5037606;28;20034;-69
2023/01/22 10:39:39;;;;;;;12.73;8.50;;;;;;;1.33;50.78;102692.97;5035665;28;20045;-69
2023/01/22 10:42:07;;;;;;;11.55;7.93;;;;;;;1.30;50.46;102685.84;5043825;28;20045;-69
2023/01/22 10:44:35;;;;;;;11.63;7.75;;;;;;;1.32;50.43;102694.78;5042097;28;20045;-68
2023/01/22 10:47:17;;;;;;;11.45;7.60;;;;;;;1.34;50.71;102679.44;5042030;28;20489;-68
2023/01/22 10:49:45;;;;;;;13.82;8.20;;;;;;;1.32;50.64;102675.91;5027701;28;20072;-68
2023/01/22 10:52:32;;;;;;;11.07;7.97;;;;;;;1.36;50.88;102685.69;5031176;28;20046;-69
2023/01/22 10:55:00;;;;;;;12.45;7.82;;;;;;;1.35;50.57;102686.63;5027447;28;20049;-69
2023/01/22 10:57:32;;;;;;;10.85;7.65;;;;;;;1.37;50.56;102691.97;5037512;28;20064;-69
2023/01/22 11:00:07;;;;;;;13.05;7.88;;;;;;;1.38;50.91;102686.56;5038693;28;20055;-70
2023/01/22 11:02:41;;;;;;;11.75;7.78;;;;;;;1.38;50.75;102683.88;5036131;28;20127;-69
2023/01/22 11:05:17;;;;;;;12.10;8.18;;;;;;;1.40;50.66;102682.03;5039062;28;20049;-67
2023/01/22 11:07:47;;;;;;;13.18;8.30;;;;;;;1.39;50.76;102677.56;5028055;28;20048;-67
2023/01/22 11:10:22;;;;;;;14.27;9.55;;;;;;;1.42;50.90;102673.91;5044242;28;20037;-71
2023/01/22 11:12:53;;;;;;;13.65;8.23;;;;;;;1.43;50.68;102678.38;5039776;28;20174;-67
2023/01/22 11:15:26;;;;;;;14.25;8.57;;;;;;;1.45;50.75;102680.13;5035202;28;20666;-70
2023/01/22 11:17:57;;;;;;;;;;;;;;;1.22;51.42;102679.69;5036133;28;20052;-69
2023/01/22 11:20:28;;;;;;;14.02;8.48;;;;;;;1.41;50.65;102675.72;5041285;28;20106;-68
2023/01/22 11:23:16;;;;;;;13.70;8.82;;;;;;;1.46;50.91;102668.41;5045281;28;20045;-69
2023/01/22 11:25:49;;;;;;;12.85;8.38;;;;;;;1.47;50.64;102677.41;5027399;28;20054;-68
2023/01/22 11:28:28;;;;;;;14.05;8.52;;;;;;;1.48;50.95;102673.78;5043709;28;20169;-69
2023/01/22 11:31:06;;;;;;;13.73;8.65;;;;;;;1.50;50.98;102677.34;5038813;28;20080;-66
2023/01/22 11:33:51;;;;;;;13.55;8.85;;;;;;;1.52;50.74;102680.88;5036202;28;20051;-67
2023/01/22 11:36:26;;;;;;;12.77;8.63;;;;;;;1.51;50.84;102676.41;5045725;28;20099;-71
2023/01/22 11:39:00;;;;;;;11.93;8.68;;;;;;;1.54;50.78;102678.16;5040633;28;20040;-68
2023/01/22 11:41:54;;;;;;;13.38;8.82;;;;;;;1.54;50.92;102676.34;5039356;28;20045;-70
2023/01/22 11:44:40;;;;;;;13.30;9.00;;;;;;;1.54;50.88;102678.16;5039064;28;20049;-69
2023/01/22 11:47:29;;;;;;;14.70;9.13;;;;;;;1.55;50.82;102671.84;5036911;28;20099;-69